Time;durP1;ratioP1;P1;durP2;ratioP2;P2;SDS_P1;SDS_P2;PMS_P1;PMS_P2;Temp;Humidity;BMP_temperature;BMP_pressure;BME280_temperature;BME280_humidity;BME280_pressure;Samples;Min_cycle;Max_cycle;Signal;HPM_P1;HPM_P2
2023/07/29 00:02:34;;;;;;;4.10;2.80;;;;;;;;;;6254020;22;20154;-90
2023/07/29 00:05:39;;;;;;;4.40;2.58;;;;;;;;;;6235530;22;20167;-87
2023/07/29 00:08:43;;;;;;;7.43;2.92;;;;;;;;;;6235677;22;20175;-89
2023/07/29 00:11:50;;;;;;;5.53;2.58;;;;;;;;;;6254145;23;20183;-90
2023/07/29 00:14:55;;;;;;;4.90;2.65;;;;;;;;;;6252740;22;20171;-89
2023/07/29 00:18:00;;;;;;;3.75;2.47;;;;;;;;;;6235809;23;20228;-90
2023/07/29 00:21:05;;;;;;;3.20;2.20;;;;;;;;;;6254633;23;20510;-89
2023/07/29 00:24:10;;;;;;;2.83;2.15;;;;;;;;;;6254309;23;20610;-89
2023/07/29 00:27:17;;;;;;;4.30;2.65;;;;;;;;;;6253620;22;20331;-89
2023/07/29 00:30:27;;;;;;;4.10;2.22;;;;;;;;;;6252711;22;20472;-89
2023/07/29 00:33:32;;;;;;;6.00;2.70;;;;;;;;;;6236562;22;20171;-89
2023/07/29 00:36:38;;;;;;;4.80;2.25;;;;;;;;;;6237039;23;20190;-90
2023/07/29 00:39:43;;;;;;;3.00;2.20;;;;;;;;;;6254566;22;20171;-88
2023/07/29 00:42:50;;;;;;;3.58;2.10;;;;;;;;;;6252838;23;20249;-90
2023/07/29 00:45:57;;;;;;;4.72;2.13;;;;;;;;;;6253539;23;20194;-89
2023/07/29 00:49:02;;;;;;;4.60;2.30;;;;;;;;;;6237413;23;20170;-89
2023/07/29 00:52:07;;;;;;;4.43;2.17;;;;;;;;;;6252834;22;20218;-91
2023/07/29 00:55:13;;;;;;;4.50;2.03;;;;;;;;;;6253235;22;20166;-89
2023/07/29 00:58:19;;;;;;;5.70;2.38;;;;;;;;;;6253093;22;20171;-89
2023/07/29 01:01:24;;;;;;;3.45;2.00;;;;;;;;;;6252781;22;20181;-89
2023/07/29 01:04:29;;;;;;;3.35;2.30;;;;;;;;;;6253967;23;20213;-90
2023/07/29 01:07:38;;;;;;;3.30;1.90;;;;;;;;;;6253224;23;20289;-89
2023/07/29 01:10:48;;;;;;;5.90;1.90;;;;;;;;;;6251967;23;20282;-88
2023/07/29 01:14:00;;;;;;;3.40;1.98;;;;;;;;;;6251988;23;20609;-88
2023/07/29 01:17:08;;;;;;;5.13;2.30;;;;;;;;;;6233227;23;20614;-89
2023/07/29 01:20:16;;;;;;;3.80;2.45;;;;;;;;;;6251912;23;20150;-88
2023/07/29 01:23:26;;;;;;;4.97;2.35;;;;;;;;;;6234278;22;20163;-89
2023/07/29 01:26:31;;;;;;;3.58;2.17;;;;;;;;;;6252894;22;20162;-90
2023/07/29 01:29:36;;;;;;;4.47;2.22;;;;;;;;;;6254354;23;20166;-89
2023/07/29 01:32:44;;;;;;;3.85;2.03;;;;;;;;;;6252852;23;20175;-88
2023/07/29 01:35:50;;;;;;;3.83;2.15;;;;;;;;;;6253330;22;20565;-89
2023/07/29 01:38:58;;;;;;;3.38;2.17;;;;;;;;;;6253861;23;20166;-88
2023/07/29 01:42:03;;;;;;;6.70;2.20;;;;;;;;;;6254527;23;20170;-89
2023/07/29 01:45:08;;;;;;;2.80;1.95;;;;;;;;;;6253042;22;20166;-90
2023/07/29 01:48:13;;;;;;;2.88;1.90;;;;;;;;;;6233178;23;20225;-89
2023/07/29 01:51:18;;;;;;;3.53;2.10;;;;;;;;;;6253050;23;20167;-88
2023/07/29 01:54:25;;;;;;;3.78;2.10;;;;;;;;;;6251993;23;20505;-89
2023/07/29 01:57:30;;;;;;;6.28;2.47;;;;;;;;;;6251559;23;20281;-88
2023/07/29 02:01:01;;;;;;;4.97;2.40;;;;;;;;;;6251440;23;20254;-89
2023/07/29 02:04:06;;;;;;;7.22;2.00;;;;;;;;;;6252665;23;20166;-88
2023/07/29 02:07:11;;;;;;;3.45;2.13;;;;;;;;;;6251796;22;20310;-88
2023/07/29 02:10:18;;;;;;;5.15;2.25;;;;;;;;;;6253375;22;20171;-89
2023/07/29 02:13:23;;;;;;;4.05;2.20;;;;;;;;;;6253259;23;20170;-90
2023/07/29 02:16:32;;;;;;;4.05;2.30;;;;;;;;;;6234953;23;20205;-90
2023/07/29 02:19:38;;;;;;;5.55;2.40;;;;;;;;;;6252497;22;20241;-87
2023/07/29 02:22:43;;;;;;;4.35;2.50;;;;;;;;;;6236005;22;20167;-90
2023/07/29 02:25:52;;;;;;;7.90;2.90;;;;;;;;;;6253256;22;20170;-90
2023/07/29 02:28:57;;;;;;;3.42;2.17;;;;;;;;;;6252497;23;20286;-90
2023/07/29 02:32:02;;;;;;;6.07;2.90;;;;;;;;;;6252352;23;20167;-89
2023/07/29 02:35:07;;;;;;;3.60;2.60;;;;;;;;;;6233960;23;20206;-87
2023/07/29 02:42:06;;;;;;;6.28;2.60;;;;;;;;;;6252917;23;20196;-87
2023/07/29 02:45:11;;;;;;;5.55;2.50;;;;;;;;;;6252537;23;20162;-89
2023/07/29 02:48:16;;;;;;;7.25;3.05;;;;;;;;;;6252627;22;20205;-88
2023/07/29 02:51:21;;;;;;;5.65;2.72;;;;;;;;;;6235745;22;20202;-88
2023/07/29 02:54:26;;;;;;;5.35;2.70;;;;;;;;;;6251414;23;20175;-89
2023/07/29 02:57:33;;;;;;;6.10;3.08;;;;;;;;;;6250881;23;20243;-89
2023/07/29 03:00:48;;;;;;;5.32;2.97;;;;;;;;;;6251070;23;20167;-88
2023/07/29 03:03:53;;;;;;;5.68;3.47;;;;;;;;;;6250919;23;20285;-88
2023/07/29 03:06:59;;;;;;;5.57;3.20;;;;;;;;;;6249714;23;20195;-89
2023/07/29 03:10:04;;;;;;;7.82;3.30;;;;;;;;;;6251788;23;20225;-87
2023/07/29 03:13:12;;;;;;;7.60;3.50;;;;;;;;;;6251531;22;20177;-88
2023/07/29 03:16:18;;;;;;;6.20;3.20;;;;;;;;;;6252078;23;20166;-87
2023/07/29 03:19:29;;;;;;;5.15;3.20;;;;;;;;;;6251338;22;20159;-87
2023/07/29 03:22:35;;;;;;;8.90;3.10;;;;;;;;;;6234718;22;20748;-89
2023/07/29 03:25:40;;;;;;;4.38;2.80;;;;;;;;;;6251810;22;20166;-89
2023/07/29 03:28:46;;;;;;;6.68;3.22;;;;;;;;;;6253115;22;20195;-88
2023/07/29 03:31:51;;;;;;;5.82;3.10;;;;;;;;;;6235060;23;20162;-89
2023/07/29 03:34:56;;;;;;;12.30;4.18;;;;;;;;;;6254231;23;20185;-89
2023/07/29 03:38:01;;;;;;;6.25;3.08;;;;;;;;;;6253497;22;20167;-88
2023/07/29 03:41:06;;;;;;;5.97;2.92;;;;;;;;;;6253879;22;20174;-88
2023/07/29 03:44:13;;;;;;;5.45;3.15;;;;;;;;;;6254239;22;20213;-88
2023/07/29 03:47:18;;;;;;;6.72;3.17;;;;;;;;;;6253709;22;20190;-88
2023/07/29 03:50:24;;;;;;;4.72;3.38;;;;;;;;;;6252853;22;20337;-87
2023/07/29 03:53:29;;;;;;;8.10;3.35;;;;;;;;;;6235731;23;20621;-88
2023/07/29 03:56:35;;;;;;;9.30;3.38;;;;;;;;;;6253281;23;20170;-90
2023/07/29 03:59:41;;;;;;;6.45;2.80;;;;;;;;;;6234299;23;20171;-88
2023/07/29 04:02:48;;;;;;;15.68;3.67;;;;;;;;;;6235807;23;20314;-89
2023/07/29 04:05:54;;;;;;;5.13;3.17;;;;;;;;;;6253408;23;20166;-90
2023/07/29 04:08:59;;;;;;;7.00;3.15;;;;;;;;;;6253945;22;20198;-89
2023/07/29 04:12:05;;;;;;;5.05;3.03;;;;;;;;;;6253272;22;20232;-88
2023/07/29 04:15:12;;;;;;;5.72;3.50;;;;;;;;;;6253474;22;20549;-89
2023/07/29 04:18:17;;;;;;;6.72;3.20;;;;;;;;;;6253969;23;20169;-88
2023/07/29 04:21:23;;;;;;;7.45;3.30;;;;;;;;;;6251381;22;20622;-89
2023/07/29 04:24:28;;;;;;;8.23;3.45;;;;;;;;;;6252841;22;20159;-89
2023/07/29 04:27:33;;;;;;;8.60;3.47;;;;;;;;;;6252101;23;20189;-88
2023/07/29 04:30:40;;;;;;;6.57;3.22;;;;;;;;;;6252566;23;20224;-88
2023/07/29 04:33:45;;;;;;;4.65;3.28;;;;;;;;;;6252785;22;20165;-88
2023/07/29 04:36:52;;;;;;;8.07;3.85;;;;;;;;;;6251579;23;20178;-88
2023/07/29 04:39:57;;;;;;;9.32;3.53;;;;;;;;;;6252195;23;20226;-89
2023/07/29 04:43:02;;;;;;;6.88;3.58;;;;;;;;;;6251094;23;20175;-89
2023/07/29 04:46:09;;;;;;;6.55;3.28;;;;;;;;;;6252717;23;20173;-88
2023/07/29 04:49:15;;;;;;;4.97;3.28;;;;;;;;;;6252311;23;20263;-90
2023/07/29 04:52:19;;;;;;;6.85;3.47;;;;;;;;;;6251730;23;20170;-89
2023/07/29 04:55:24;;;;;;;6.00;3.28;;;;;;;;;;6253316;22;20170;-89
2023/07/29 04:58:29;;;;;;;7.28;3.55;;;;;;;;;;6253216;22;20614;-89
2023/07/29 05:01:38;;;;;;;6.70;3.78;;;;;;;;;;6234641;23;20257;-89
2023/07/29 05:04:43;;;;;;;6.53;3.22;;;;;;;;;;6250363;23;20166;-90
2023/07/29 05:07:49;;;;;;;6.80;2.90;;;;;;;;;;6249621;23;20272;-90
2023/07/29 05:10:54;;;;;;;6.03;3.10;;;;;;;;;;6251614;23;20213;-88
2023/07/29 05:13:59;;;;;;;6.95;3.15;;;;;;;;;;6250459;23;20167;-88
2023/07/29 05:17:06;;;;;;;8.50;3.40;;;;;;;;;;6250633;23;20174;-88
2023/07/29 05:20:12;;;;;;;7.43;3.63;;;;;;;;;;6234591;23;20170;-90
2023/07/29 05:23:17;;;;;;;5.28;3.30;;;;;;;;;;6253907;22;20155;-90
2023/07/29 05:26:23;;;;;;;7.10;3.67;;;;;;;;;;6254144;22;20169;-88
2023/07/29 05:29:29;;;;;;;7.05;3.47;;;;;;;;;;6234951;23;20190;-89
2023/07/29 05:32:36;;;;;;;7.50;2.83;;;;;;;;;;6254894;23;20257;-88
2023/07/29 05:35:41;;;;;;;5.63;3.17;;;;;;;;;;6252379;22;20193;-88
2023/07/29 05:38:47;;;;;;;7.38;3.55;;;;;;;;;;6253858;23;20185;-88
2023/07/29 05:41:52;;;;;;;5.93;3.53;;;;;;;;;;6252468;22;20166;-88
2023/07/29 05:44:56;;;;;;;8.73;3.28;;;;;;;;;;6252614;22;20233;-88
2023/07/29 05:48:02;;;;;;;4.28;3.20;;;;;;;;;;6252797;23;20194;-89
2023/07/29 05:51:08;;;;;;;5.78;3.30;;;;;;;;;;6254024;22;20174;-89
2023/07/29 05:54:13;;;;;;;5.53;3.13;;;;;;;;;;6252281;23;20174;-88
2023/07/29 05:57:18;;;;;;;11.98;3.63;;;;;;;;;;6250044;23;20167;-90
2023/07/29 06:00:24;;;;;;;4.70;3.20;;;;;;;;;;6251998;23;20189;-88
2023/07/29 06:03:30;;;;;;;8.35;3.03;;;;;;;;;;6234970;23;20166;-90
2023/07/29 06:06:35;;;;;;;6.03;3.28;;;;;;;;;;6252650;23;20261;-88
2023/07/29 06:09:40;;;;;;;6.32;3.35;;;;;;;;;;6250873;23;20198;-89
2023/07/29 06:12:45;;;;;;;4.18;2.80;;;;;;;;;;6250623;23;20185;-89
2023/07/29 06:15:50;;;;;;;7.07;2.75;;;;;;;;;;6253210;22;20174;-87
2023/07/29 06:18:57;;;;;;;6.70;2.97;;;;;;;;;;6253477;22;20170;-88
2023/07/29 06:22:02;;;;;;;6.85;2.83;;;;;;;;;;6252616;23;20218;-89
2023/07/29 06:25:07;;;;;;;5.55;2.75;;;;;;;;;;6252879;22;20189;-88
2023/07/29 06:28:12;;;;;;;6.07;2.80;;;;;;;;;;6253173;22;20182;-89
2023/07/29 06:31:17;;;;;;;5.55;2.95;;;;;;;;;;6253433;22;20181;-90
2023/07/29 06:34:23;;;;;;;4.18;2.53;;;;;;;;;;6253750;22;20189;-88
2023/07/29 06:37:29;;;;;;;4.40;2.70;;;;;;;;;;6260884;23;20231;-85
2023/07/29 06:40:34;;;;;;;9.60;2.70;;;;;;;;;;6239464;22;20209;-90
2023/07/29 06:43:40;;;;;;;3.85;2.30;;;;;;;;;;6253850;22;20179;-89
2023/07/29 06:46:44;;;;;;;3.60;2.38;;;;;;;;;;6236559;22;20170;-88
2023/07/29 06:49:51;;;;;;;5.28;2.80;;;;;;;;;;6257212;22;20197;-88
2023/07/29 06:52:56;;;;;;;7.68;2.42;;;;;;;;;;6253306;23;20182;-89
2023/07/29 06:56:01;;;;;;;4.97;2.47;;;;;;;;;;6237631;23;20170;-88
2023/07/29 06:59:07;;;;;;;4.18;2.33;;;;;;;;;;6251844;23;20181;-89
2023/07/29 07:02:13;;;;;;;6.50;2.55;;;;;;;;;;6253427;22;20171;-89
2023/07/29 07:05:20;;;;;;;4.38;2.40;;;;;;;;;;6253554;23;20166;-89
2023/07/29 07:08:25;;;;;;;5.28;2.28;;;;;;;;;;6238824;23;20554;-88
2023/07/29 07:11:30;;;;;;;4.45;2.42;;;;;;;;;;6238545;23;20167;-89
2023/07/29 07:14:43;;;;;;;2.72;2.03;;;;;;;;;;6256044;22;20166;-88
2023/07/29 07:17:49;;;;;;;3.65;2.40;;;;;;;;;;6255784;22;20262;-88
2023/07/29 07:20:55;;;;;;;7.70;3.00;;;;;;;;;;6255718;23;20166;-91
2023/07/29 07:24:01;;;;;;;7.18;2.22;;;;;;;;;;6256838;23;20167;-90
2023/07/29 07:27:08;;;;;;;4.20;2.40;;;;;;;;;;6261489;22;20190;-89
2023/07/29 07:30:13;;;;;;;6.47;2.53;;;;;;;;;;6258110;22;20190;-88
2023/07/29 07:33:19;;;;;;;3.95;2.72;;;;;;;;;;6257279;22;20167;-89
2023/07/29 07:36:25;;;;;;;3.85;2.80;;;;;;;;;;6255654;23;20194;-89
2023/07/29 07:39:59;;;;;;;4.75;2.63;;;;;;;;;;6257452;22;20173;-88
2023/07/29 07:43:04;;;;;;;3.03;2.33;;;;;;;;;;6259601;22;20174;-90
2023/07/29 07:46:09;;;;;;;3.75;2.35;;;;;;;;;;6256836;22;20182;-88
2023/07/29 07:49:14;;;;;;;4.15;1.88;;;;;;;;;;6256961;22;20211;-89
2023/07/29 07:52:20;;;;;;;5.03;1.98;;;;;;;;;;6257415;22;20166;-88
2023/07/29 07:55:26;;;;;;;2.67;1.60;;;;;;;;;;6256002;22;20474;-88
2023/07/29 07:58:30;;;;;;;3.40;1.88;;;;;;;;;;6255453;22;20297;-91
2023/07/29 08:01:36;;;;;;;3.15;1.80;;;;;;;;;;6253564;23;20499;-89
2023/07/29 08:04:42;;;;;;;3.70;1.88;;;;;;;;;;6259342;22;20178;-89
2023/07/29 08:07:49;;;;;;;3.58;1.58;;;;;;;;;;6257047;23;20174;-88
2023/07/29 08:10:54;;;;;;;2.22;1.50;;;;;;;;;;6256262;23;20173;-88
2023/07/29 08:14:00;;;;;;;2.70;1.80;;;;;;;;;;6256930;23;20241;-89
2023/07/29 08:17:06;;;;;;;1.80;1.40;;;;;;;;;;6254533;22;20495;-90
2023/07/29 08:20:11;;;;;;;1.70;1.30;;;;;;;;;;6257181;23;20227;-89
2023/07/29 08:23:18;;;;;;;3.38;1.90;;;;;;;;;;6256144;22;20162;-88
2023/07/29 08:26:23;;;;;;;3.90;1.80;;;;;;;;;;6256867;23;20217;-90
2023/07/29 08:29:28;;;;;;;3.38;1.40;;;;;;;;;;6256474;23;20201;-89
2023/07/29 08:32:33;;;;;;;3.10;1.45;;;;;;;;;;6239331;23;20170;-89
2023/07/29 08:35:39;;;;;;;5.80;2.00;;;;;;;;;;6256093;23;20216;-89
2023/07/29 08:38:47;;;;;;;4.07;1.77;;;;;;;;;;6257055;22;20218;-90
2023/07/29 08:41:56;;;;;;;3.58;1.83;;;;;;;;;;6259935;23;20233;-88
2023/07/29 08:45:03;;;;;;;2.10;1.50;;;;;;;;;;6259397;23;20222;-88
2023/07/29 08:48:10;;;;;;;7.35;3.80;;;;;;;;;;6240143;23;20162;-88
2023/07/29 08:51:16;;;;;;;5.47;2.35;;;;;;;;;;6256007;23;20214;-89
2023/07/29 08:54:23;;;;;;;2.28;1.60;;;;;;;;;;6236614;23;20239;-88
2023/07/29 08:57:29;;;;;;;3.38;2.05;;;;;;;;;;6255864;23;20194;-89
2023/07/29 09:00:36;;;;;;;4.90;1.85;;;;;;;;;;6257395;23;20170;-89
2023/07/29 09:03:42;;;;;;;4.68;2.35;;;;;;;;;;6255217;23;20237;-90
2023/07/29 09:06:49;;;;;;;1.05;0.57;;;;;;;;;;6257647;22;20165;-87
2023/07/29 09:09:56;;;;;;;0.20;0.20;;;;;;;;;;6257327;23;20521;-88
2023/07/29 09:13:03;;;;;;;1.10;1.00;;;;;;;;;;6259521;23;20216;-88
2023/07/29 09:16:08;;;;;;;0.40;0.40;;;;;;;;;;6242299;23;20166;-89
2023/07/29 09:19:13;;;;;;;0.57;0.57;;;;;;;;;;6240548;23;20166;-90
2023/07/29 09:22:22;;;;;;;0.98;0.70;;;;;;;;;;6256544;22;20186;-89
2023/07/29 09:25:29;;;;;;;0.50;0.50;;;;;;;;;;6254619;22;20166;-91
2023/07/29 09:28:34;;;;;;;0.30;0.30;;;;;;;;;;6259691;22;20162;-89
2023/07/29 09:36:00;;;;;;;0.65;0.65;;;;;;;;;;6260960;22;20210;-88
2023/07/29 09:39:12;;;;;;;1.38;0.88;;;;;;;;;;6258010;23;20171;-89
2023/07/29 09:42:22;;;;;;;0.60;0.60;;;;;;;;;;6257515;22;20157;-90
2023/07/29 09:45:29;;;;;;;0.88;0.75;;;;;;;;;;6257547;22;20206;-88
2023/07/29 09:48:34;;;;;;;0.50;0.50;;;;;;;;;;6241512;22;20186;-89
2023/07/29 09:51:40;;;;;;;0.40;0.40;;;;;;;;;;6239699;23;20163;-88
2023/07/29 09:54:46;;;;;;;0.40;0.40;;;;;;;;;;6243475;23;20171;-89
2023/07/29 09:57:56;;;;;;;1.23;0.88;;;;;;;;;;6239120;23;20244;-89
2023/07/29 10:01:01;;;;;;;0.28;0.28;;;;;;;;;;6258129;22;20170;-90
2023/07/29 10:04:07;;;;;;;1.45;0.80;;;;;;;;;;6263280;22;20221;-89
2023/07/29 10:07:14;;;;;;;0.32;0.32;;;;;;;;;;6259722;22;20182;-87
2023/07/29 10:10:19;;;;;;;0.40;0.40;;;;;;;;;;6260043;22;20193;-88
2023/07/29 10:13:27;;;;;;;0.57;0.57;;;;;;;;;;6258512;22;20221;-89
2023/07/29 10:16:33;;;;;;;0.50;0.50;;;;;;;;;;6240319;22;20541;-89
2023/07/29 10:19:38;;;;;;;0.50;0.45;;;;;;;;;;6239168;23;20166;-88
2023/07/29 10:22:44;;;;;;;0.22;0.22;;;;;;;;;;6255069;22;20167;-90
2023/07/29 10:25:50;;;;;;;0.30;0.30;;;;;;;;;;6236686;23;20166;-89
2023/07/29 10:28:59;;;;;;;0.35;0.35;;;;;;;;;;6254399;22;20304;-90
2023/07/29 10:32:09;;;;;;;0.30;0.30;;;;;;;;;;6253216;22;20162;-90
2023/07/29 10:35:15;;;;;;;0.32;0.32;;;;;;;;;;6239778;22;20189;-90
2023/07/29 10:38:20;;;;;;;0.38;0.38;;;;;;;;;;6256044;22;20162;-90
2023/07/29 10:41:46;;;;;;;0.20;0.20;;;;;;;;;;6243041;23;20185;-90
2023/07/29 10:44:53;;;;;;;0.30;0.30;;;;;;;;;;6242109;22;20166;-88
2023/07/29 10:47:58;;;;;;;0.55;0.55;;;;;;;;;;6259070;22;20276;-90
2023/07/29 10:51:18;;;;;;;0.20;0.20;;;;;;;;;;6260991;23;20189;-89
2023/07/29 10:57:47;;;;;;;0.75;0.75;;;;;;;;;;6242648;23;20166;-89
2023/07/29 11:00:53;;;;;;;1.33;0.30;;;;;;;;;;6261652;23;20210;-90
2023/07/29 11:04:17;;;;;;;0.22;0.22;;;;;;;;;;6260780;23;20264;-90
2023/07/29 11:07:29;;;;;;;0.57;0.57;;;;;;;;;;6243960;23;20166;-88
2023/07/29 11:10:44;;;;;;;0.25;0.25;;;;;;;;;;6259686;23;20198;-89
2023/07/29 11:13:49;;;;;;;0.88;0.68;;;;;;;;;;6262798;22;20281;-90
2023/07/29 11:16:55;;;;;;;0.63;0.55;;;;;;;;;;6241240;23;20174;-90
2023/07/29 11:20:02;;;;;;;0.45;0.45;;;;;;;;;;6256461;22;20169;-89
2023/07/29 11:23:07;;;;;;;0.30;0.30;;;;;;;;;;6240105;23;20177;-89
2023/07/29 11:26:13;;;;;;;0.50;0.50;;;;;;;;;;6260887;22;20169;-88
2023/07/29 11:29:18;;;;;;;0.47;0.47;;;;;;;;;;6241111;23;20165;-90
2023/07/29 11:32:27;;;;;;;0.55;0.40;;;;;;;;;;6260163;22;20252;-90
2023/07/29 11:35:34;;;;;;;0.30;0.30;;;;;;;;;;6247369;23;20229;-90
2023/07/29 11:38:41;;;;;;;0.40;0.40;;;;;;;;;;6262916;22;20186;-89
2023/07/29 11:41:48;;;;;;;0.20;0.20;;;;;;;;;;6263399;22;20230;-90
2023/07/29 11:44:53;;;;;;;1.13;0.90;;;;;;;;;;6261608;22;20165;-89
2023/07/29 11:48:00;;;;;;;0.35;0.32;;;;;;;;;;6243126;23;20166;-89
2023/07/29 11:51:05;;;;;;;0.30;0.30;;;;;;;;;;6259030;22;20294;-89
2023/07/29 11:54:10;;;;;;;0.45;0.43;;;;;;;;;;6265152;23;20250;-90
2023/07/29 11:57:16;;;;;;;4.85;2.83;;;;;;;;;;6260574;23;20162;-89
2023/07/29 12:00:23;;;;;;;3.33;1.73;;;;;;;;;;6244073;23;20170;-88
2023/07/29 12:03:31;;;;;;;3.75;2.40;;;;;;;;;;6263803;23;20178;-89
2023/07/29 12:06:38;;;;;;;4.30;1.92;;;;;;;;;;6261956;22;20170;-90
2023/07/29 12:09:45;;;;;;;5.20;3.40;;;;;;;;;;6263665;23;20307;-88
2023/07/29 12:12:52;;;;;;;4.00;2.00;;;;;;;;;;6258263;22;20178;-89
2023/07/29 12:16:03;;;;;;;3.10;1.67;;;;;;;;;;6258054;23;20175;-89
2023/07/29 12:19:14;;;;;;;2.75;1.65;;;;;;;;;;6258349;22;20159;-89
2023/07/29 12:22:20;;;;;;;3.13;1.92;;;;;;;;;;6256758;23;20513;-88
2023/07/29 12:25:25;;;;;;;4.72;2.00;;;;;;;;;;6240940;23;20162;-90
2023/07/29 12:28:32;;;;;;;4.97;2.17;;;;;;;;;;6261435;23;20179;-90
2023/07/29 12:31:42;;;;;;;7.50;2.55;;;;;;;;;;6241625;22;20202;-89
2023/07/29 12:34:48;;;;;;;5.43;2.20;;;;;;;;;;6257765;22;20166;-90
2023/07/29 12:38:00;;;;;;;4.43;2.28;;;;;;;;;;6259557;22;20170;-89
2023/07/29 12:41:04;;;;;;;7.53;2.65;;;;;;;;;;6242119;23;20209;-91
2023/07/29 12:44:10;;;;;;;10.40;2.80;;;;;;;;;;6241451;22;20178;-89
2023/07/29 12:47:15;;;;;;;6.50;2.60;;;;;;;;;;6241615;23;20174;-88
2023/07/29 12:50:22;;;;;;;5.40;2.63;;;;;;;;;;6258889;23;20209;-89
2023/07/29 12:53:28;;;;;;;10.57;3.85;;;;;;;;;;6257829;23;20618;-89
2023/07/29 12:56:33;;;;;;;4.50;2.40;;;;;;;;;;6258841;22;20217;-89
2023/07/29 12:59:38;;;;;;;1.25;0.60;;;;;;;;;;6258140;23;20243;-88
2023/07/29 13:02:43;;;;;;;0.50;0.50;;;;;;;;;;6256700;23;20282;-88
2023/07/29 13:05:49;;;;;;;0.40;0.40;;;;;;;;;;6253226;23;20205;-89
2023/07/29 13:08:54;;;;;;;0.22;0.22;;;;;;;;;;6238635;23;20186;-89
2023/07/29 13:12:00;;;;;;;0.50;0.50;;;;;;;;;;6255233;23;20146;-90
2023/07/29 13:15:06;;;;;;;0.60;0.60;;;;;;;;;;6260590;22;20170;-90
2023/07/29 13:18:11;;;;;;;0.20;0.20;;;;;;;;;;6258430;22;20182;-89
2023/07/29 13:21:18;;;;;;;0.40;0.40;;;;;;;;;;6259098;22;20186;-88
2023/07/29 13:24:27;;;;;;;0.40;0.40;;;;;;;;;;6259172;22;20162;-89
2023/07/29 13:27:33;;;;;;;0.50;0.50;;;;;;;;;;6258712;22;20163;-90
2023/07/29 13:30:38;;;;;;;0.45;0.45;;;;;;;;;;6242744;23;20193;-89
2023/07/29 13:33:43;;;;;;;0.45;0.35;;;;;;;;;;6258877;23;20167;-89
2023/07/29 13:36:51;;;;;;;0.47;0.47;;;;;;;;;;6261867;22;20193;-89
2023/07/29 13:39:56;;;;;;;0.47;0.47;;;;;;;;;;6259315;23;20166;-90
2023/07/29 13:43:01;;;;;;;0.47;0.47;;;;;;;;;;6258169;23;20186;-89
2023/07/29 13:46:06;;;;;;;1.55;0.35;;;;;;;;;;6239205;23;20166;-89
2023/07/29 13:49:11;;;;;;;0.30;0.30;;;;;;;;;;6240215;22;20165;-88
2023/07/29 13:52:18;;;;;;;4.22;0.47;;;;;;;;;;6258014;23;20166;-89
2023/07/29 13:55:23;;;;;;;0.90;0.60;;;;;;;;;;6258440;23;20157;-89
2023/07/29 13:58:28;;;;;;;0.65;0.50;;;;;;;;;;6260776;22;20161;-89
2023/07/29 14:01:37;;;;;;;0.47;0.47;;;;;;;;;;6261879;22;20166;-88
2023/07/29 14:04:42;;;;;;;0.20;0.20;;;;;;;;;;6259852;23;20211;-90
2023/07/29 14:07:54;;;;;;;0.20;0.20;;;;;;;;;;6261278;23;20240;-89
2023/07/29 14:10:59;;;;;;;0.60;0.60;;;;;;;;;;6258823;22;20185;-90
2023/07/29 14:14:04;;;;;;;0.38;0.38;;;;;;;;;;6259300;23;20169;-90
2023/07/29 14:17:09;;;;;;;0.13;0.13;;;;;;;;;;6259080;22;20185;-90
2023/07/29 14:20:15;;;;;;;0.28;0.28;;;;;;;;;;6258325;22;20170;-90
2023/07/29 14:23:21;;;;;;;2.60;1.77;;;;;;;;;;6258352;22;20161;-89
2023/07/29 14:26:26;;;;;;;2.13;1.58;;;;;;;;;;6257804;23;20205;-90
2023/07/29 14:29:31;;;;;;;5.28;1.90;;;;;;;;;;6260459;22;20165;-90
2023/07/29 14:33:04;;;;;;;2.13;1.55;;;;;;;;;;6258522;23;20169;-91
2023/07/29 14:36:10;;;;;;;5.40;1.83;;;;;;;;;;6259552;23;20185;-89
2023/07/29 14:39:16;;;;;;;2.95;1.85;;;;;;;;;;6257722;23;20244;-88
2023/07/29 14:42:24;;;;;;;2.72;1.77;;;;;;;;;;6258909;23;20169;-90
2023/07/29 14:45:31;;;;;;;4.07;1.85;;;;;;;;;;6231845;23;20204;-89
2023/07/29 14:48:36;;;;;;;2.40;1.70;;;;;;;;;;6262217;22;20153;-91
2023/07/29 14:51:41;;;;;;;2.78;1.95;;;;;;;;;;6259266;23;20228;-88
2023/07/29 14:54:52;;;;;;;2.38;1.80;;;;;;;;;;6259809;23;20170;-90
2023/07/29 14:57:57;;;;;;;2.75;2.03;;;;;;;;;;6257300;23;20174;-90
2023/07/29 15:01:03;;;;;;;5.10;2.10;;;;;;;;;;6223196;23;20178;-89
2023/07/29 15:04:08;;;;;;;5.55;2.35;;;;;;;;;;6259226;23;20162;-89
2023/07/29 15:07:15;;;;;;;3.00;1.73;;;;;;;;;;6258935;22;20187;-88
2023/07/29 15:10:22;;;;;;;5.18;3.22;;;;;;;;;;6260236;22;20167;-89
2023/07/29 15:13:27;;;;;;;7.50;5.18;;;;;;;;;;6261032;23;20146;-90
2023/07/29 15:16:35;;;;;;;5.65;2.08;;;;;;;;;;6258765;23;20175;-90
2023/07/29 15:19:40;;;;;;;5.43;1.95;;;;;;;;;;6259938;22;20165;-89
2023/07/29 15:22:46;;;;;;;3.20;1.90;;;;;;;;;;6258102;22;20170;-89
2023/07/29 15:25:53;;;;;;;2.35;1.73;;;;;;;;;;6259235;22;20163;-89
2023/07/29 15:29:00;;;;;;;3.08;2.05;;;;;;;;;;6243451;23;20166;-88
2023/07/29 15:32:05;;;;;;;4.05;1.80;;;;;;;;;;6261491;23;20194;-89
2023/07/29 15:35:11;;;;;;;6.05;2.00;;;;;;;;;;6262634;22;20162;-90
2023/07/29 15:38:58;;;;;;;3.78;2.10;;;;;;;;;;6263468;23;20288;-89
2023/07/29 15:42:05;;;;;;;2.60;1.83;;;;;;;;;;6258893;22;20170;-88
2023/07/29 15:45:10;;;;;;;2.75;2.10;;;;;;;;;;6257381;23;20175;-90
2023/07/29 15:48:15;;;;;;;56.65;7.75;;;;;;;;;;6257284;22;20209;-88
2023/07/29 15:51:21;;;;;;;23.67;4.70;;;;;;;;;;6242448;22;20656;-89
2023/07/29 15:54:26;;;;;;;6.95;2.17;;;;;;;;;;6259491;22;20178;-90
2023/07/29 15:57:33;;;;;;;5.10;1.98;;;;;;;;;;6258366;22;20227;-89
2023/07/29 16:00:39;;;;;;;9.10;2.75;;;;;;;;;;6258471;22;20621;-89
2023/07/29 16:03:44;;;;;;;15.27;3.33;;;;;;;;;;6262136;22;20171;-89
2023/07/29 16:06:49;;;;;;;3.35;2.08;;;;;;;;;;6242283;23;20170;-90
2023/07/29 16:09:55;;;;;;;2.78;1.90;;;;;;;;;;6260760;23;20169;-90
2023/07/29 16:13:05;;;;;;;5.25;2.08;;;;;;;;;;6259197;22;20595;-89
2023/07/29 16:16:10;;;;;;;4.95;2.47;;;;;;;;;;6242835;23;20278;-88
2023/07/29 16:19:29;;;;;;;6.55;2.67;;;;;;;;;;6242712;23;20170;-91
2023/07/29 16:22:35;;;;;;;8.38;3.35;;;;;;;;;;6260033;23;20216;-88
2023/07/29 16:25:40;;;;;;;7.72;2.50;;;;;;;;;;6258771;23;20154;-90
2023/07/29 16:28:47;;;;;;;8.63;3.90;;;;;;;;;;6261759;22;20170;-88
2023/07/29 16:31:53;;;;;;;4.25;2.58;;;;;;;;;;6244144;23;20198;-90
2023/07/29 16:34:58;;;;;;;6.72;2.90;;;;;;;;;;6259988;23;20190;-89
2023/07/29 16:38:08;;;;;;;4.22;2.17;;;;;;;;;;6241158;23;20166;-89
2023/07/29 16:41:13;;;;;;;4.78;2.65;;;;;;;;;;6243201;23;20170;-92
2023/07/29 16:44:19;;;;;;;6.20;2.70;;;;;;;;;;6259122;23;20235;-88
2023/07/29 16:47:26;;;;;;;8.70;2.90;;;;;;;;;;6257777;22;20289;-89
2023/07/29 16:50:31;;;;;;;9.50;4.22;;;;;;;;;;6258125;23;20209;-88
2023/07/29 16:53:37;;;;;;;6.22;2.47;;;;;;;;;;6257780;22;20170;-89
2023/07/29 16:56:42;;;;;;;8.20;2.88;;;;;;;;;;6257365;22;20171;-88
2023/07/29 17:00:03;;;;;;;6.63;2.70;;;;;;;;;;6257441;23;20170;-89
2023/07/29 17:03:14;;;;;;;5.60;2.50;;;;;;;;;;6261236;23;20174;-89
2023/07/29 17:06:19;;;;;;;6.72;3.05;;;;;;;;;;6259445;23;20165;-89
2023/07/29 17:09:24;;;;;;;6.47;2.75;;;;;;;;;;6256059;23;20515;-89
2023/07/29 17:12:29;;;;;;;5.72;3.20;;;;;;;;;;6255679;23;20649;-89
2023/07/29 17:15:34;;;;;;;8.10;2.70;;;;;;;;;;6256427;22;20653;-89
2023/07/29 17:18:41;;;;;;;6.80;1.80;;;;;;;;;;6255480;22;20154;-88
2023/07/29 17:21:45;;;;;;;4.00;2.08;;;;;;;;;;6237769;22;20174;-88
2023/07/29 17:24:51;;;;;;;3.15;2.08;;;;;;;;;;6259161;22;20170;-88
2023/07/29 17:27:56;;;;;;;3.88;2.30;;;;;;;;;;6237440;23;20504;-88
2023/07/29 17:31:03;;;;;;;2.90;1.98;;;;;;;;;;6238376;23;20609;-88
2023/07/29 17:34:10;;;;;;;5.50;2.40;;;;;;;;;;6258399;23;20170;-89
2023/07/29 17:37:31;;;;;;;5.30;2.78;;;;;;;;;;6254631;22;20197;-89
2023/07/29 17:40:36;;;;;;;3.15;2.10;;;;;;;;;;6256228;22;20166;-89
2023/07/29 17:43:44;;;;;;;4.25;2.58;;;;;;;;;;6258925;22;20489;-90
2023/07/29 17:46:49;;;;;;;4.22;2.30;;;;;;;;;;6257275;22;20584;-90
2023/07/29 17:49:55;;;;;;;4.43;2.40;;;;;;;;;;6257573;22;20253;-89
2023/07/29 17:53:00;;;;;;;5.07;2.38;;;;;;;;;;6238932;23;20190;-89
2023/07/29 17:56:07;;;;;;;5.72;2.78;;;;;;;;;;6258194;23;20166;-88
2023/07/29 17:59:14;;;;;;;8.57;2.63;;;;;;;;;;6259576;23;20182;-89
2023/07/29 18:05:46;;;;;;;5.55;3.60;;;;;;;;;;6239254;22;20214;-87
2023/07/29 18:08:52;;;;;;;5.57;2.80;;;;;;;;;;6256447;22;20194;-88
2023/07/29 18:12:00;;;;;;;6.20;2.25;;;;;;;;;;6257563;22;20190;-88
2023/07/29 18:15:06;;;;;;;7.90;2.65;;;;;;;;;;6256856;23;20171;-89
2023/07/29 18:18:16;;;;;;;3.88;2.63;;;;;;;;;;6256824;22;20214;-89
2023/07/29 18:21:23;;;;;;;6.60;2.60;;;;;;;;;;6238191;22;20174;-88
2023/07/29 18:24:28;;;;;;;8.65;2.92;;;;;;;;;;6255617;23;20151;-89
2023/07/29 18:27:33;;;;;;;4.32;2.75;;;;;;;;;;6255926;22;20231;-88
2023/07/29 18:30:38;;;;;;;8.90;2.67;;;;;;;;;;6255639;23;20205;-87
2023/07/29 18:33:44;;;;;;;4.95;2.58;;;;;;;;;;6257425;22;20163;-90
2023/07/29 18:37:17;;;;;;;6.25;2.45;;;;;;;;;;6256982;23;20288;-90
2023/07/29 18:40:23;;;;;;;7.28;2.72;;;;;;;;;;6238697;23;20166;-89
2023/07/29 18:43:29;;;;;;;5.78;3.05;;;;;;;;;;6256697;23;20194;-91
2023/07/29 18:46:34;;;;;;;7.20;3.00;;;;;;;;;;6237184;22;20166;-89
2023/07/29 18:49:40;;;;;;;7.30;2.33;;;;;;;;;;6255346;23;21002;-89
2023/07/29 18:52:45;;;;;;;12.07;2.50;;;;;;;;;;6238823;23;20194;-87
2023/07/29 18:55:51;;;;;;;10.55;3.95;;;;;;;;;;6237056;23;20166;-89